createdAt,value
2022-07-28T00:01:19.872Z,6.30
2022-07-28T00:03:49.397Z,6.40
2022-07-28T00:06:17.762Z,6.68
2022-07-28T00:08:45.963Z,7.90
2022-07-28T00:11:13.893Z,6.10
2022-07-28T00:13:42.359Z,7.25
2022-07-28T00:16:11.237Z,6.53
2022-07-28T00:18:39.806Z,5.90
2022-07-28T00:21:08.101Z,6.53
2022-07-28T00:23:39.242Z,7.35
2022-07-28T00:26:10.542Z,9.10
2022-07-28T00:28:39.468Z,8.32
2022-07-28T00:31:08.086Z,6.57
2022-07-28T00:33:38.237Z,7.77
2022-07-28T00:36:10.414Z,6.18
2022-07-28T00:38:44.074Z,6.22
2022-07-28T00:41:13.349Z,8.68
2022-07-28T00:43:44.510Z,9.88
2022-07-28T00:46:13.915Z,7.83
2022-07-28T00:48:45.635Z,8.18
2022-07-28T00:51:15.543Z,6.13
2022-07-28T00:53:44.059Z,7.50
2022-07-28T00:56:12.477Z,6.50
2022-07-28T00:58:40.686Z,8.13
2022-07-28T01:01:10.778Z,7.20
2022-07-28T01:03:41.632Z,6.68
2022-07-28T01:06:31.169Z,6.72
2022-07-28T01:09:25.926Z,5.97
2022-07-28T01:12:33.157Z,9.47
2022-07-28T01:15:03.832Z,6.55
2022-07-28T01:17:56.490Z,6.15
2022-07-28T01:20:42.352Z,6.10
2022-07-28T01:23:13.395Z,6.25
2022-07-28T01:26:02.687Z,6.80
2022-07-28T01:28:44.316Z,10.10
2022-07-28T01:31:17.626Z,7.38
2022-07-28T01:33:59.957Z,5.93
2022-07-28T01:36:37.190Z,6.97
2022-07-28T01:39:05.500Z,8.43
2022-07-28T01:41:34.443Z,5.40
2022-07-28T01:44:06.923Z,6.15
2022-07-28T01:46:37.770Z,7.10
2022-07-28T01:49:08.030Z,11.05
2022-07-28T01:51:37.691Z,6.43
2022-07-28T01:54:07.324Z,10.85
2022-07-28T01:56:35.748Z,8.40
2022-07-28T01:59:10.085Z,7.35
2022-07-28T02:01:42.844Z,5.22
2022-07-28T02:04:12.702Z,11.67
2022-07-28T02:06:43.403Z,11.00
2022-07-28T02:09:13.320Z,7.43
2022-07-28T02:11:42.855Z,6.15
2022-07-28T02:14:21.818Z,5.75
2022-07-28T02:16:54.702Z,8.87
2022-07-28T02:19:23.729Z,9.18
2022-07-28T02:21:53.945Z,7.75
2022-07-28T02:24:29.506Z,8.90
2022-07-28T02:27:04.469Z,8.05
2022-07-28T02:29:52.090Z,7.73
2022-07-28T02:32:28.680Z,8.27
2022-07-28T02:35:25.301Z,7.38
2022-07-28T02:38:10.844Z,9.35
2022-07-28T02:40:41.685Z,7.10
2022-07-28T02:43:14.909Z,8.77
2022-07-28T02:45:46.440Z,9.48
2022-07-28T02:48:19.462Z,7.43
2022-07-28T02:50:49.083Z,6.80
2022-07-28T02:53:17.618Z,7.55
2022-07-28T02:55:48.458Z,6.40
2022-07-28T02:58:18.946Z,5.97
2022-07-28T03:00:49.432Z,15.25
2022-07-28T03:03:19.177Z,6.72
2022-07-28T03:05:48.110Z,9.02
2022-07-28T03:08:19.843Z,6.83
2022-07-28T03:10:47.817Z,7.60
2022-07-28T03:13:15.859Z,7.95
2022-07-28T03:15:44.175Z,7.70
2022-07-28T03:18:11.910Z,8.07
2022-07-28T03:20:39.851Z,7.63
2022-07-28T03:23:10.454Z,7.35
2022-07-28T03:25:48.521Z,8.68
2022-07-28T03:28:20.096Z,6.60
2022-07-28T03:31:00.955Z,8.48
2022-07-28T03:33:29.535Z,11.20
2022-07-28T03:35:59.721Z,8.60
2022-07-28T03:38:37.832Z,7.07
2022-07-28T03:41:09.039Z,6.50
2022-07-28T03:43:38.399Z,7.95
2022-07-28T03:46:12.811Z,6.97
2022-07-28T03:48:41.748Z,8.32
2022-07-28T03:51:09.726Z,10.50
2022-07-28T03:53:38.392Z,16.10
2022-07-28T03:56:06.828Z,16.45
2022-07-28T03:58:34.809Z,8.93
2022-07-28T04:01:02.653Z,8.50
2022-07-28T04:03:42.637Z,7.10
2022-07-28T04:06:13.260Z,8.32
2022-07-28T04:08:41.807Z,7.18
2022-07-28T04:11:10.233Z,16.20
2022-07-28T04:13:38.016Z,17.70
2022-07-28T04:16:07.576Z,8.50
2022-07-28T04:18:35.916Z,7.38
2022-07-28T04:21:04.260Z,8.20
2022-07-28T04:23:33.131Z,7.63
2022-07-28T04:26:01.137Z,7.75
2022-07-28T04:28:28.873Z,12.02
2022-07-28T04:30:57.309Z,9.05
2022-07-28T04:33:25.313Z,8.77
2022-07-28T04:35:53.525Z,9.37
2022-07-28T04:38:21.702Z,11.73
2022-07-28T04:40:50.083Z,9.73
2022-07-28T04:43:18.424Z,11.70
2022-07-28T04:45:53.780Z,11.13
2022-07-28T04:48:23.930Z,9.83
2022-07-28T04:50:53.476Z,9.02
2022-07-28T04:53:22.901Z,12.98
2022-07-28T04:55:53.392Z,13.80
2022-07-28T04:58:22.624Z,10.10
2022-07-28T05:00:51.632Z,7.67
2022-07-28T05:03:20.515Z,28.23
2022-07-28T05:05:52.954Z,31.48
2022-07-28T05:08:26.219Z,15.90
2022-07-28T05:10:56.781Z,17.55
2022-07-28T05:13:28.910Z,15.07
2022-07-28T05:16:02.863Z,11.95
2022-07-28T05:18:30.648Z,8.30
2022-07-28T05:20:58.692Z,11.50
2022-07-28T05:23:27.139Z,12.48
2022-07-28T05:25:55.058Z,21.33
2022-07-28T05:28:23.497Z,15.13
2022-07-28T05:30:51.987Z,15.48
2022-07-28T05:33:19.749Z,13.40
2022-07-28T05:35:57.967Z,13.60
2022-07-28T05:38:27.670Z,21.07
2022-07-28T05:40:55.580Z,19.67
2022-07-28T05:43:23.821Z,21.95
2022-07-28T05:45:52.430Z,7.80
2022-07-28T05:48:21.216Z,12.00
2022-07-28T05:50:50.606Z,6.80
2022-07-28T05:53:19.788Z,11.63
2022-07-28T05:55:59.729Z,8.93
2022-07-28T05:58:30.680Z,6.75
2022-07-28T06:01:00.453Z,6.63
2022-07-28T06:03:30.925Z,7.30
2022-07-28T06:06:15.326Z,11.93
2022-07-28T06:08:45.930Z,8.68
2022-07-28T06:11:22.288Z,9.52
2022-07-28T06:13:53.024Z,8.30
2022-07-28T06:16:23.292Z,7.53
2022-07-28T06:18:52.109Z,8.90
2022-07-28T06:21:20.161Z,6.47
2022-07-28T06:23:48.343Z,8.27
2022-07-28T06:26:16.124Z,8.95
2022-07-28T06:28:44.308Z,7.87
2022-07-28T06:31:13.170Z,7.10
2022-07-28T06:33:41.220Z,10.57
2022-07-28T06:36:09.104Z,11.13
2022-07-28T06:38:37.614Z,8.40
2022-07-28T06:41:06.321Z,8.70
2022-07-28T06:43:38.769Z,8.40
2022-07-28T06:46:07.911Z,9.63
2022-07-28T06:48:39.878Z,9.43
2022-07-28T06:51:08.171Z,9.48
2022-07-28T06:53:35.947Z,10.37
2022-07-28T06:56:05.649Z,10.57
2022-07-28T06:58:34.404Z,12.23
2022-07-28T07:01:03.622Z,10.30
2022-07-28T07:03:33.672Z,10.35
2022-07-28T07:06:01.761Z,9.27
2022-07-28T07:08:29.663Z,10.73
2022-07-28T07:10:57.603Z,10.30
2022-07-28T07:13:26.298Z,9.23
2022-07-28T07:15:54.463Z,15.93
2022-07-28T07:18:22.475Z,7.97
2022-07-28T07:20:50.555Z,9.52
2022-07-28T07:23:18.625Z,11.80
2022-07-28T07:25:46.647Z,8.75
2022-07-28T07:28:14.977Z,10.02
2022-07-28T07:30:42.818Z,11.03
2022-07-28T07:33:10.914Z,8.60
2022-07-28T07:35:39.278Z,9.10
2022-07-28T07:38:07.359Z,15.40
2022-07-28T07:40:35.772Z,11.35
2022-07-28T07:43:04.654Z,6.90
2022-07-28T07:45:34.607Z,8.95
2022-07-28T07:48:04.590Z,8.43
2022-07-28T07:50:32.889Z,8.57
2022-07-28T07:53:01.578Z,10.90
2022-07-28T07:55:34.448Z,9.63
2022-07-28T07:58:06.508Z,8.52
2022-07-28T08:00:34.626Z,14.70
2022-07-28T08:03:02.638Z,7.32
2022-07-28T08:05:35.793Z,10.27
2022-07-28T08:08:07.846Z,10.77
2022-07-28T08:10:38.352Z,8.02
2022-07-28T08:13:07.926Z,8.07
2022-07-28T08:15:35.963Z,8.48
2022-07-28T08:18:04.589Z,8.63
2022-07-28T08:20:32.447Z,10.77
2022-07-28T08:23:00.422Z,9.23
2022-07-28T08:25:29.053Z,7.22
2022-07-28T08:27:57.233Z,6.90
2022-07-28T08:30:28.803Z,9.55
2022-07-28T08:33:01.180Z,10.87
2022-07-28T08:35:34.065Z,7.25
2022-07-28T08:38:06.821Z,11.07
2022-07-28T08:40:36.654Z,10.50
2022-07-28T08:43:14.381Z,11.77
2022-07-28T08:45:44.856Z,9.07
2022-07-28T08:48:13.844Z,9.80
2022-07-28T08:50:44.445Z,9.73
2022-07-28T08:53:12.748Z,8.60
2022-07-28T08:55:41.156Z,7.80
2022-07-28T08:58:11.200Z,8.43
2022-07-28T09:00:39.137Z,7.50
2022-07-28T09:03:08.262Z,9.90
2022-07-28T09:05:37.376Z,7.82
2022-07-28T09:08:05.974Z,8.02
2022-07-28T09:10:34.328Z,8.53
2022-07-28T09:13:02.152Z,8.68
2022-07-28T09:15:30.497Z,6.57
2022-07-28T09:17:58.749Z,7.25
2022-07-28T09:20:28.473Z,9.00
2022-07-28T09:23:04.935Z,7.53
2022-07-28T09:26:11.463Z,8.20
2022-07-28T09:28:55.541Z,9.23
2022-07-28T09:56:19.475Z,8.55
2022-07-28T09:58:56.059Z,14.00
2022-07-28T10:01:26.317Z,6.70
2022-07-28T10:03:59.383Z,8.88
2022-07-28T10:06:32.895Z,8.63
2022-07-28T10:09:03.004Z,6.07
2022-07-28T10:11:31.868Z,7.88
2022-07-28T10:14:05.262Z,8.27
2022-07-28T10:16:43.038Z,7.38
2022-07-28T10:19:11.157Z,7.88
2022-07-28T10:21:46.620Z,10.90
2022-07-28T10:24:25.410Z,7.28
2022-07-28T10:26:57.002Z,10.07
2022-07-28T10:29:25.426Z,8.40
2022-07-28T10:32:01.014Z,7.90
2022-07-28T10:34:36.705Z,6.65
2022-07-28T10:37:06.971Z,9.90
2022-07-28T10:40:06.504Z,8.63
2022-07-28T10:42:39.031Z,8.13
2022-07-28T10:45:11.654Z,10.20
2022-07-28T10:47:40.147Z,8.75
2022-07-28T10:50:08.971Z,7.97
2022-07-28T10:52:48.984Z,7.93
2022-07-28T10:55:48.851Z,7.10
2022-07-28T10:58:25.275Z,8.00
2022-07-28T11:00:57.223Z,8.07
2022-07-28T11:03:47.827Z,8.27
2022-07-28T11:06:37.271Z,7.47
2022-07-28T11:09:17.469Z,8.38
2022-07-28T11:11:58.207Z,7.88
2022-07-28T11:14:27.169Z,10.40
2022-07-28T11:17:01.569Z,7.72
2022-07-28T11:22:43.479Z,8.80
2022-07-28T11:25:18.869Z,8.25
2022-07-28T11:27:51.483Z,7.90
2022-07-28T11:30:23.067Z,9.25
2022-07-28T11:32:51.259Z,9.90
2022-07-28T11:35:20.663Z,8.57
2022-07-28T11:38:03.886Z,9.60
2022-07-28T11:40:32.536Z,7.85
2022-07-28T11:43:36.495Z,10.43
2022-07-28T11:46:07.635Z,8.03
2022-07-28T11:48:45.412Z,10.68
2022-07-28T11:51:14.430Z,9.80
2022-07-28T11:53:44.761Z,8.55
2022-07-28T11:56:17.256Z,7.60
2022-07-28T11:58:45.845Z,10.13
2022-07-28T12:01:19.587Z,6.93
2022-07-28T12:03:56.045Z,9.20
2022-07-28T12:06:29.230Z,8.43
2022-07-28T12:09:00.615Z,9.50
2022-07-28T12:11:32.836Z,10.20
2022-07-28T12:14:04.841Z,8.88
2022-07-28T12:16:37.085Z,7.22
2022-07-28T12:19:06.386Z,8.30
2022-07-28T12:21:46.415Z,8.70
2022-07-28T12:24:27.024Z,7.33
2022-07-28T12:26:55.675Z,9.18
2022-07-28T12:29:25.094Z,11.05
2022-07-28T12:32:03.069Z,7.18
2022-07-28T12:34:33.651Z,8.38
2022-07-28T12:37:04.587Z,8.07
2022-07-28T12:39:39.904Z,9.18
2022-07-28T12:42:12.794Z,9.50
2022-07-28T12:44:43.185Z,7.30
2022-07-28T12:47:15.655Z,8.32
2022-07-28T12:49:45.675Z,7.93
2022-07-28T12:52:26.974Z,7.93
2022-07-28T12:54:56.615Z,7.55
2022-07-28T12:57:50.981Z,9.65
2022-07-28T13:00:32.141Z,8.15
2022-07-28T13:03:03.132Z,10.67
2022-07-28T13:05:56.438Z,6.75
2022-07-28T13:08:27.553Z,7.32
2022-07-28T13:10:58.749Z,7.95
2022-07-28T13:13:28.810Z,7.50
2022-07-28T13:16:22.211Z,8.67
2022-07-28T13:18:53.985Z,12.63
2022-07-28T13:21:58.496Z,8.35
2022-07-28T13:24:29.666Z,6.70
2022-07-28T13:26:59.571Z,11.93
2022-07-28T13:29:27.843Z,9.97
2022-07-28T13:31:56.225Z,9.70
2022-07-28T13:34:24.289Z,7.40
2022-07-28T13:36:52.868Z,6.95
2022-07-28T13:39:21.110Z,7.18
2022-07-28T13:41:58.405Z,8.90
2022-07-28T13:44:28.723Z,7.72
2022-07-28T13:47:06.051Z,9.07
2022-07-28T13:49:44.843Z,12.95
2022-07-28T13:52:32.750Z,7.07
2022-07-28T13:55:06.377Z,6.83
2022-07-28T13:57:36.430Z,9.20
2022-07-28T14:00:08.046Z,13.95
2022-07-28T14:02:37.001Z,8.00
2022-07-28T14:05:05.963Z,8.90
2022-07-28T14:07:34.248Z,8.80
2022-07-28T14:10:02.255Z,7.60
2022-07-28T14:12:30.277Z,7.57
2022-07-28T14:14:58.426Z,9.73
2022-07-28T14:17:43.937Z,9.50
2022-07-28T14:20:15.367Z,9.33
2022-07-28T14:22:44.711Z,10.18
2022-07-28T14:25:21.231Z,10.70
2022-07-28T14:27:50.957Z,9.35
2022-07-28T14:30:21.437Z,10.18
2022-07-28T14:32:49.936Z,9.50
2022-07-28T14:35:17.847Z,9.82
2022-07-28T14:40:39.363Z,9.18
2022-07-28T14:43:08.878Z,8.45
2022-07-28T14:45:50.595Z,9.93
2022-07-28T14:48:25.174Z,13.65
2022-07-28T14:50:55.681Z,10.40
2022-07-28T14:53:24.454Z,8.45
2022-07-28T14:55:56.458Z,9.52
2022-07-28T14:58:24.541Z,12.97
2022-07-28T15:00:52.542Z,7.30
2022-07-28T15:03:20.709Z,8.88
2022-07-28T15:05:48.688Z,8.57
2022-07-28T15:08:16.480Z,9.10
2022-07-28T15:10:44.734Z,9.83
2022-07-28T15:13:16.850Z,11.55
2022-07-28T15:15:45.442Z,11.63
2022-07-28T15:18:16.292Z,11.30
2022-07-28T15:20:45.771Z,9.93
2022-07-28T15:23:16.943Z,9.60
2022-07-28T15:25:48.630Z,11.75
2022-07-28T15:28:17.701Z,12.10
2022-07-28T15:30:52.842Z,10.40
2022-07-28T15:33:21.588Z,10.95
2022-07-28T15:35:59.363Z,11.30
2022-07-28T15:38:31.652Z,11.98
2022-07-28T15:41:00.377Z,10.10
2022-07-28T15:43:29.146Z,18.10
2022-07-28T15:45:57.899Z,9.60
2022-07-28T15:48:26.016Z,9.43
2022-07-28T15:50:53.918Z,10.95
2022-07-28T15:53:22.381Z,10.30
2022-07-28T15:55:51.593Z,10.02
2022-07-28T15:58:21.477Z,10.68
2022-07-28T16:00:51.117Z,19.23
2022-07-28T16:03:22.051Z,10.50
2022-07-28T16:05:51.025Z,10.15
2022-07-28T16:08:22.929Z,9.27
2022-07-28T16:10:54.648Z,10.43
2022-07-28T16:13:31.485Z,10.23
2022-07-28T16:16:08.039Z,10.85
2022-07-28T16:18:37.555Z,11.32
2022-07-28T16:21:07.049Z,14.75
2022-07-28T16:23:35.899Z,11.95
2022-07-28T16:26:08.293Z,15.37
2022-07-28T16:28:36.969Z,14.70
2022-07-28T16:31:05.086Z,16.25
2022-07-28T16:33:33.914Z,11.30
2022-07-28T16:36:02.984Z,9.93
2022-07-28T16:38:31.015Z,10.80
2022-07-28T16:40:58.995Z,11.25
2022-07-28T16:46:56.892Z,12.23
2022-07-28T16:49:25.485Z,11.02
2022-07-28T16:51:54.929Z,11.43
2022-07-28T16:54:23.418Z,10.63
2022-07-28T16:56:51.789Z,9.88
2022-07-28T16:59:19.756Z,11.50
2022-07-28T17:01:47.819Z,15.20
2022-07-28T17:04:16.959Z,11.60
2022-07-28T17:06:46.200Z,11.70
2022-07-28T17:09:16.287Z,14.95
2022-07-28T17:11:44.724Z,11.77
2022-07-28T17:14:13.095Z,10.43
2022-07-28T17:16:41.287Z,11.43
2022-07-28T17:19:09.565Z,14.20
2022-07-28T17:21:37.924Z,16.40
2022-07-28T17:24:07.176Z,10.77
2022-07-28T17:29:24.099Z,11.77
2022-07-28T17:31:52.171Z,15.55
2022-07-28T17:34:20.043Z,18.85
2022-07-28T17:36:48.553Z,11.05
2022-07-28T17:39:16.843Z,12.65
2022-07-28T17:41:44.588Z,25.97
2022-07-28T17:44:12.919Z,13.10
2022-07-28T17:46:41.748Z,11.05
2022-07-28T17:49:11.441Z,12.95
2022-07-28T17:51:39.807Z,11.20
2022-07-28T17:54:09.255Z,13.40
2022-07-28T17:56:38.908Z,11.52
2022-07-28T17:59:09.292Z,11.90
2022-07-28T18:01:39.963Z,12.05
2022-07-28T18:04:11.659Z,11.10
2022-07-28T18:06:40.658Z,13.57
2022-07-28T18:09:12.556Z,17.25
2022-07-28T18:11:56.999Z,15.50
2022-07-28T18:14:30.379Z,15.00
2022-07-28T18:16:59.570Z,11.93
2022-07-28T18:19:28.387Z,15.90
2022-07-28T18:21:57.069Z,15.57
2022-07-28T18:24:25.439Z,14.20
2022-07-28T18:30:48.910Z,13.57
2022-07-28T18:33:18.438Z,13.97
2022-07-28T18:35:46.364Z,13.82
2022-07-28T18:38:14.576Z,11.45
2022-07-28T18:40:43.181Z,13.07
2022-07-28T18:43:13.210Z,27.67
2022-07-28T18:45:43.279Z,12.43
2022-07-28T18:48:11.933Z,14.63
2022-07-28T18:50:42.015Z,12.35
2022-07-28T18:53:11.988Z,11.88
2022-07-28T18:55:41.596Z,14.85
2022-07-28T18:58:09.362Z,13.50
2022-07-28T19:00:37.759Z,12.15
2022-07-28T19:03:06.167Z,14.73
2022-07-28T19:05:36.788Z,16.85
2022-07-28T19:08:06.095Z,17.10
2022-07-28T19:10:33.952Z,14.63
2022-07-28T19:13:01.861Z,13.90
2022-07-28T19:15:30.419Z,14.52
2022-07-28T19:18:10.166Z,14.88
2022-07-28T19:20:45.317Z,14.23
2022-07-28T19:23:13.305Z,13.67
2022-07-28T19:25:41.478Z,13.75
2022-07-28T19:28:12.040Z,15.75
2022-07-28T19:30:40.130Z,16.98
2022-07-28T19:33:09.786Z,13.85
2022-07-28T19:35:38.329Z,17.10
2022-07-28T19:38:06.617Z,14.75
2022-07-28T19:40:35.792Z,16.58
2022-07-28T19:43:11.324Z,21.60
2022-07-28T19:45:42.376Z,22.50
2022-07-28T19:48:18.469Z,18.67
2022-07-28T19:51:02.825Z,18.45
2022-07-28T19:53:34.494Z,17.48
2022-07-28T19:56:09.151Z,19.15
2022-07-28T19:58:40.487Z,20.98
2022-07-28T20:01:10.299Z,19.13
2022-07-28T20:04:02.389Z,20.05
2022-07-28T20:06:26.394Z,16.58
2022-07-28T20:08:54.576Z,15.52
2022-07-28T20:11:22.411Z,15.25
2022-07-28T20:13:51.154Z,17.40
2022-07-28T20:16:19.341Z,16.65
2022-07-28T20:18:48.072Z,17.50
2022-07-28T20:21:18.896Z,15.13
2022-07-28T20:23:46.709Z,15.02
2022-07-28T20:26:14.930Z,14.90
2022-07-28T20:28:44.591Z,17.83
2022-07-28T20:31:16.702Z,20.00
2022-07-28T20:33:45.399Z,17.42
2022-07-28T20:36:13.516Z,19.42
2022-07-28T20:38:41.625Z,16.60
2022-07-28T20:41:10.465Z,19.95
2022-07-28T20:43:38.451Z,15.90
2022-07-28T20:46:06.332Z,17.42
2022-07-28T20:48:35.554Z,15.55
2022-07-28T20:51:03.512Z,17.97
2022-07-28T20:53:31.507Z,14.85
2022-07-28T20:56:00.143Z,15.93
2022-07-28T20:58:29.375Z,17.58
2022-07-28T21:00:58.856Z,16.02
2022-07-28T21:03:27.313Z,14.73
2022-07-28T21:05:55.217Z,15.45
2022-07-28T21:08:24.040Z,14.55
2022-07-28T21:10:52.697Z,19.70
2022-07-28T21:13:21.146Z,14.55
2022-07-28T21:15:49.871Z,17.13
2022-07-28T21:18:18.791Z,15.82
2022-07-28T21:20:46.628Z,15.43
2022-07-28T21:23:15.273Z,21.10
2022-07-28T21:25:45.333Z,15.70
2022-07-28T21:28:32.659Z,16.20
2022-07-28T21:31:02.417Z,16.60
2022-07-28T21:33:31.146Z,14.60
2022-07-28T21:35:59.133Z,14.32
2022-07-28T21:38:27.492Z,18.48
2022-07-28T21:40:55.517Z,16.50
2022-07-28T21:43:23.626Z,16.05
2022-07-28T21:45:52.497Z,14.55
2022-07-28T21:48:24.113Z,12.18
2022-07-28T21:50:52.998Z,14.88
2022-07-28T21:53:21.378Z,14.90
2022-07-28T21:55:49.733Z,14.07
2022-07-28T21:58:17.582Z,14.75
2022-07-28T22:00:45.763Z,12.98
2022-07-28T22:03:13.558Z,16.05
2022-07-28T22:05:41.889Z,14.53
2022-07-28T22:08:09.990Z,14.57
2022-07-28T22:10:37.873Z,15.35
2022-07-28T22:13:05.859Z,15.02
2022-07-28T22:15:34.189Z,17.15
2022-07-28T22:18:01.970Z,14.90
2022-07-28T22:20:30.005Z,13.60
2022-07-28T22:22:58.066Z,14.57
2022-07-28T22:25:26.168Z,18.98
2022-07-28T22:27:53.990Z,14.73
2022-07-28T22:30:22.236Z,15.67
2022-07-28T22:32:50.041Z,19.65
2022-07-28T22:35:18.677Z,15.48
2022-07-28T22:37:46.754Z,14.00
2022-07-28T22:40:16.065Z,15.45
2022-07-28T22:42:44.915Z,14.70
2022-07-28T22:45:13.361Z,13.68
2022-07-28T22:47:41.210Z,13.75
2022-07-28T22:50:10.006Z,14.40
2022-07-28T22:52:38.177Z,15.68
2022-07-28T22:57:51.879Z,14.13
2022-07-28T23:00:19.579Z,13.57
2022-07-28T23:02:48.583Z,13.48
2022-07-28T23:05:16.840Z,15.90
2022-07-28T23:07:51.390Z,14.83
2022-07-28T23:10:25.472Z,13.23
2022-07-28T23:12:56.080Z,14.23
2022-07-28T23:15:41.183Z,12.70
2022-07-28T23:18:16.141Z,12.98
2022-07-28T23:20:45.343Z,13.30
2022-07-28T23:23:15.124Z,13.32
2022-07-28T23:25:43.141Z,15.70
2022-07-28T23:28:12.544Z,15.80
2022-07-28T23:30:40.389Z,17.35
2022-07-28T23:33:09.064Z,16.67
2022-07-28T23:35:48.952Z,17.10
2022-07-28T23:38:16.661Z,20.50
2022-07-28T23:40:44.645Z,18.48
2022-07-28T23:43:12.764Z,17.05
2022-07-28T23:45:40.635Z,21.73
2022-07-28T23:48:08.305Z,17.67
2022-07-28T23:50:36.669Z,18.88
2022-07-28T23:53:04.549Z,17.88
2022-07-28T23:55:32.414Z,17.42
2022-07-28T23:58:00.480Z,18.10
